Time;durP1;ratioP1;P1;durP2;ratioP2;P2;SDS_P1;SDS_P2;PMS_P1;PMS_P2;Temp;Humidity;BMP_temperature;BMP_pressure;BME280_temperature;BME280_humidity;BME280_pressure;Samples;Min_cycle;Max_cycle;Signal;HPM_P1;HPM_P2
2022/02/09 00:01:08;;;;;;;29.97;12.20;;;;;;;0.29;68.73;100714.44;126373;1099;104605;-80
2022/02/09 00:03:47;;;;;;;31.60;11.80;;;;;;;0.34;68.83;100720.89;126391;1099;109363;-80
2022/02/09 00:06:35;;;;;;;28.97;11.13;;;;;;;0.35;69.00;100727.84;126366;1099;104254;-80
2022/02/09 00:09:07;;;;;;;26.40;11.55;;;;;;;0.38;69.00;100726.30;126376;1099;104159;-80
2022/02/09 00:11:44;;;;;;;29.27;12.97;;;;;;;0.41;68.72;100730.02;126349;1099;104162;-80
2022/02/09 00:14:24;;;;;;;29.23;12.40;;;;;;;0.44;68.70;100730.27;126370;1099;104288;-80
2022/02/09 00:17:16;;;;;;;28.67;12.27;;;;;;;0.45;69.01;100724.34;126306;1099;104261;-80
2022/02/09 00:20:08;;;;;;;29.67;12.60;;;;;;;0.46;68.81;100713.20;126240;1099;104246;-80
2022/02/09 00:23:09;;;;;;;27.77;11.50;;;;;;;0.49;69.05;100725.47;126201;1099;102022;-80
2022/02/09 00:31:52;;;;;;;36.05;16.10;;;;;;;0.46;69.39;100717.48;126002;1099;104200;-79
2022/02/09 00:34:50;;;;;;;35.03;16.62;;;;;;;0.45;68.87;100721.75;126324;1099;104223;-79
2022/02/09 00:37:39;;;;;;;32.47;14.50;;;;;;;0.46;68.39;100725.23;126361;1098;104153;-80
2022/02/09 00:43:38;;;;;;;32.33;13.33;;;;;;;0.51;68.65;100723.90;126321;1099;104175;-80
2022/02/09 01:12:04;;;;;;;32.33;13.73;;;;;;;0.49;69.20;100704.81;126251;1099;104277;-80
2022/02/09 01:40:35;;;;;;;25.23;10.47;;;;;;;0.62;69.55;100694.64;126338;1098;104570;-79
2022/02/09 01:57:19;;;;;;;26.03;10.93;;;;;;;0.59;69.78;100699.58;126347;1099;104682;-80
2022/02/09 01:59:50;;;;;;;25.13;10.67;;;;;;;0.60;69.87;100696.22;126412;1099;104153;-80
2022/02/09 02:02:23;;;;;;;29.67;11.07;;;;;;;0.60;69.55;100695.33;126391;1099;104300;-80
2022/02/09 02:04:54;;;;;;;28.43;11.07;;;;;;;0.59;69.95;100686.66;126324;1099;104156;-80
2022/02/09 02:07:34;;;;;;;27.27;11.00;;;;;;;0.61;70.26;100691.95;126370;1099;104300;-80
2022/02/09 02:10:09;;;;;;;26.13;10.43;;;;;;;0.64;70.13;100682.78;126399;1099;104171;-80
2022/02/09 02:13:09;;;;;;;27.67;9.80;;;;;;;0.68;70.20;100678.74;126415;1099;104169;-80
2022/02/09 02:18:30;;;;;;;26.23;10.40;;;;;;;0.71;70.29;100678.98;126167;1099;104173;-80
2022/02/09 02:21:17;;;;;;;27.33;10.63;;;;;;;0.72;70.53;100673.05;126309;1099;104229;-80
2022/02/09 02:24:14;;;;;;;27.53;11.03;;;;;;;0.78;70.32;100680.34;126320;1099;104195;-79
2022/02/09 02:27:00;;;;;;;26.10;9.90;;;;;;;0.81;70.45;100681.51;126333;1099;104146;-79
2022/02/09 02:30:01;;;;;;;26.13;10.43;;;;;;;0.88;70.36;100685.45;126342;1099;104440;-80
2022/02/09 03:12:38;;;;;;;26.90;9.97;;;;;;;1.31;70.32;100670.64;125253;1102;104156;-80
2022/02/09 03:15:32;;;;;;;24.90;8.83;;;;;;;1.30;70.34;100671.42;125194;1102;104230;-78
2022/02/09 03:18:33;;;;;;;23.77;9.68;;;;;;;1.33;70.39;100673.34;125217;1102;104146;-79
2022/02/09 03:21:17;;;;;;;21.17;8.77;;;;;;;1.34;70.71;100667.36;125270;1102;104287;-79
2022/02/09 03:23:52;;;;;;;23.57;9.10;;;;;;;1.36;70.36;100673.58;125195;1102;107786;-79
2022/02/09 03:46:27;;;;;;;23.07;9.57;;;;;;;1.46;71.13;100667.40;125330;1102;104152;-79
2022/02/09 03:49:13;;;;;;;30.00;11.93;;;;;;;1.44;71.11;100673.34;125224;1102;104155;-79
2022/02/09 03:52:00;;;;;;;25.10;10.30;;;;;;;1.45;70.99;100676.85;125219;1102;104205;-79
2022/02/09 03:54:37;;;;;;;22.83;10.10;;;;;;;1.46;71.43;100675.16;125118;1102;104213;-79
2022/02/09 03:57:23;;;;;;;22.37;9.73;;;;;;;1.46;71.52;100670.87;125238;1102;104296;-79
2022/02/09 03:59:56;;;;;;;23.80;9.73;;;;;;;1.48;71.12;100674.50;125181;1102;104227;-79
2022/02/09 04:02:29;;;;;;;23.70;9.83;;;;;;;1.51;71.05;100666.97;125273;1102;104147;-79
2022/02/09 04:05:01;;;;;;;21.93;9.23;;;;;;;1.54;71.83;100664.61;125212;1102;107006;-79
2022/02/09 04:07:32;;;;;;;20.17;9.07;;;;;;;1.57;72.07;100666.50;125226;1102;104149;-79
2022/02/09 04:10:06;;;;;;;25.70;10.00;;;;;;;1.57;71.42;100664.84;125243;1102;104195;-79
2022/02/09 04:12:43;;;;;;;25.60;9.28;;;;;;;1.60;72.58;100674.48;125192;1102;105211;-79
2022/02/09 04:15:24;;;;;;;21.03;8.50;;;;;;;1.60;72.28;100671.91;125191;1102;117771;-79
2022/02/09 04:18:10;;;;;;;26.63;11.10;;;;;;;1.60;72.21;100677.97;125120;1102;104291;-78
2022/02/09 04:37:43;;;;;;;22.17;9.57;;;;;;;1.52;73.12;100676.50;125165;1102;104258;-79
2022/02/09 04:40:30;;;;;;;26.20;9.83;;;;;;;1.50;72.99;100687.55;125208;1102;104297;-79
2022/02/09 04:43:22;;;;;;;23.50;9.60;;;;;;;1.49;73.70;100683.14;125223;1102;104155;-78
2022/02/09 04:49:06;;;;;;;21.83;8.77;;;;;;;1.42;73.81;100698.20;125159;1102;104316;-78
2022/02/09 04:51:49;;;;;;;22.13;9.73;;;;;;;1.39;74.59;100691.91;125208;1102;104203;-78
2022/02/09 04:54:29;;;;;;;24.53;9.77;;;;;;;1.37;74.01;100698.63;125212;1102;104235;-78
2022/02/09 04:57:05;;;;;;;21.07;9.03;;;;;;;1.35;74.16;100703.68;125261;1102;104380;-78
2022/02/09 04:59:44;;;;;;;19.37;8.37;;;;;;;1.36;74.25;100702.02;125275;1102;104152;-79
2022/02/09 05:05:42;;;;;;;21.40;9.03;;;;;;;1.32;74.83;100708.63;125202;1102;104198;-77
2022/02/09 05:28:16;;;;;;;19.20;8.30;;;;;;;1.19;75.26;100740.40;125183;1102;104630;-78
2022/02/09 05:30:51;;;;;;;19.62;7.80;;;;;;;1.20;75.86;100746.46;125187;1102;101793;-79
2022/02/09 05:33:23;;;;;;;25.97;9.87;;;;;;;1.20;76.16;100742.22;125206;1101;104252;-79
2022/02/09 05:35:55;;;;;;;19.90;8.97;;;;;;;1.20;75.89;100741.29;125111;1100;104213;-77
2022/02/09 05:38:26;;;;;;;23.20;9.17;;;;;;;1.21;75.93;100749.16;125002;1103;104290;-77
2022/02/09 05:40:58;;;;;;;20.47;8.17;;;;;;;1.22;75.84;100747.50;125006;1102;104261;-78
2022/02/09 05:43:29;;;;;;;20.80;9.37;;;;;;;1.24;75.40;100753.68;125046;1102;104175;-78
2022/02/09 05:46:26;;;;;;;19.40;8.80;;;;;;;1.27;75.63;100746.16;125016;1102;104223;-77
2022/02/09 05:51:52;;;;;;;21.83;8.40;;;;;;;1.35;76.65;100752.81;125181;1102;104306;-78
2022/02/09 05:54:42;;;;;;;17.33;7.57;;;;;;;1.36;76.90;100762.37;125196;1102;104634;-78
2022/02/09 05:57:26;;;;;;;21.00;8.53;;;;;;;1.37;76.47;100763.27;125075;1102;104165;-78
2022/02/09 05:59:58;;;;;;;20.20;8.77;;;;;;;1.40;76.83;100776.44;125170;1099;104176;-78
2022/02/09 06:02:29;;;;;;;18.10;7.67;;;;;;;1.41;76.96;100771.38;125104;1099;104252;-78
2022/02/09 06:05:02;;;;;;;18.73;7.97;;;;;;;1.44;76.63;100776.78;125074;1099;104204;-78
2022/02/09 06:07:33;;;;;;;19.17;8.53;;;;;;;1.48;76.83;100777.02;125182;1099;104221;-77
2022/02/09 06:10:12;;;;;;;23.80;9.10;;;;;;;1.52;76.80;100776.48;125111;1102;104161;-78
2022/02/09 06:12:50;;;;;;;19.90;8.90;;;;;;;1.54;76.65;100772.31;125143;1100;104181;-77
2022/02/09 06:15:47;;;;;;;20.33;8.43;;;;;;;1.56;76.91;100771.66;125204;1102;104156;-78
2022/02/09 06:21:08;;;;;;;18.93;8.30;;;;;;;1.65;77.68;100784.37;125144;1102;104252;-77
2022/02/09 06:23:42;;;;;;;17.98;8.00;;;;;;;1.67;77.58;100779.31;125133;1102;104335;-78
2022/02/09 06:26:14;;;;;;;22.00;9.07;;;;;;;1.72;78.07;100789.23;125049;1102;104207;-79
2022/02/09 06:28:48;;;;;;;21.27;9.00;;;;;;;1.78;78.26;100788.81;125032;1102;104207;-79
2022/02/09 06:31:23;;;;;;;20.50;8.47;;;;;;;1.85;77.89;100798.81;125096;1102;104294;-79
2022/02/09 06:33:56;;;;;;;21.23;9.68;;;;;;;1.93;77.92;100804.56;125171;1102;104672;-80
2022/02/09 06:36:28;;;;;;;21.57;9.90;;;;;;;1.97;77.86;100807.50;125081;1102;104248;-79
2022/02/09 06:39:05;;;;;;;21.57;9.60;;;;;;;2.03;77.74;100807.07;125102;1099;109311;-79
2022/02/09 06:41:39;;;;;;;22.93;9.30;;;;;;;2.08;78.61;100815.18;125090;1099;104152;-80
2022/02/09 06:44:09;;;;;;;;;;;;;;;2.16;79.21;100817.53;125032;1099;104214;-82
2022/02/09 06:46:44;;;;;;;21.97;9.20;;;;;;;2.26;78.72;100818.21;124954;1099;104338;-80
2022/02/09 06:49:21;;;;;;;20.10;8.33;;;;;;;2.35;79.05;100818.89;125003;1099;104325;-80
2022/02/09 06:51:52;;;;;;;24.37;9.73;;;;;;;2.46;79.28;100822.27;125045;1099;104226;-79
2022/02/09 06:54:31;;;;;;;25.10;10.43;;;;;;;2.53;78.97;100827.13;125026;1099;104204;-79
2022/02/09 06:57:13;;;;;;;20.30;9.10;;;;;;;2.59;79.07;100831.87;125067;1099;104450;-80
2022/02/09 06:59:48;;;;;;;26.23;9.83;;;;;;;2.64;80.07;100831.39;125017;1099;104194;-79
2022/02/09 07:02:25;;;;;;;26.10;10.70;;;;;;;2.72;78.70;100826.77;125026;1099;104230;-79
2022/02/09 07:04:57;;;;;;;24.93;10.97;;;;;;;2.81;78.95;100827.43;125109;1099;104235;-80
2022/02/09 07:07:28;;;;;;;26.33;10.80;;;;;;;2.89;79.38;100830.58;125039;1102;104143;-79
2022/02/09 07:10:01;;;;;;;22.67;10.77;;;;;;;2.98;79.14;100835.53;125014;1099;104210;-81
2022/02/09 07:12:34;;;;;;;30.00;12.55;;;;;;;3.05;79.50;100840.34;124958;1099;104184;-79
2022/02/09 07:15:21;;;;;;;27.37;12.87;;;;;;;3.13;79.90;100836.62;125092;1102;104204;-80
2022/02/09 07:18:09;;;;;;;26.40;12.90;;;;;;;3.23;79.77;100843.34;124962;1099;104214;-79
2022/02/09 07:20:55;;;;;;;21.90;11.50;;;;;;;3.31;78.82;100849.08;125040;1099;104175;-81
2022/02/09 07:23:37;;;;;;;25.57;11.50;;;;;;;3.38;80.38;100843.50;124902;1099;104287;-80
2022/02/09 07:26:19;;;;;;;24.80;11.60;;;;;;;3.46;80.09;100844.96;124952;1102;104251;-79
2022/02/09 07:28:56;;;;;;;22.00;10.70;;;;;;;3.54;79.67;100838.60;125011;1102;104275;-80
2022/02/09 07:31:28;;;;;;;24.07;11.20;;;;;;;3.61;79.50;100847.70;124977;1102;104176;-80
2022/02/09 07:34:03;;;;;;;23.83;10.60;;;;;;;3.67;79.90;100845.53;124948;1099;104174;-78
2022/02/09 07:36:37;;;;;;;25.20;11.60;;;;;;;3.72;79.65;100845.84;124945;1102;104236;-80
2022/02/09 07:39:19;;;;;;;24.23;11.00;;;;;;;3.80;80.32;100847.26;124939;1099;104140;-79
2022/02/09 07:41:54;;;;;;;25.90;11.47;;;;;;;3.88;79.41;100851.30;124917;1102;104256;-79
2022/02/09 07:44:45;;;;;;;24.70;11.37;;;;;;;3.92;79.35;100849.80;124981;1099;104688;-79
2022/02/09 07:47:41;;;;;;;24.20;10.77;;;;;;;3.96;80.12;100855.30;125080;1099;101884;-80
2022/02/09 07:53:12;;;;;;;23.73;11.03;;;;;;;4.11;80.12;100859.73;125028;1099;104201;-78
2022/02/09 07:55:46;;;;;;;24.63;10.67;;;;;;;4.17;79.41;100862.73;125140;1099;104318;-77
2022/02/09 07:58:16;;;;;;;;;;;;;;;4.21;79.57;100872.55;125054;1098;104221;-77
2022/02/09 08:00:54;;;;;;;23.03;11.73;;;;;;;4.26;79.62;100876.34;125017;1099;104273;-78
2022/02/09 08:03:29;;;;;;;21.03;10.43;;;;;;;4.32;79.92;100876.75;124918;1099;104306;-77
2022/02/09 08:06:05;;;;;;;22.60;10.65;;;;;;;4.35;79.99;100873.47;124856;1102;104141;-79
2022/02/09 08:08:43;;;;;;;25.50;10.67;;;;;;;4.37;80.09;100883.97;124967;1099;104205;-77
2022/02/09 08:11:25;;;;;;;25.10;11.07;;;;;;;4.40;79.79;100879.87;125446;1100;104255;-77
2022/02/09 08:26:37;;;;;;;20.17;9.63;;;;;;;4.58;79.32;100897.47;124935;1099;104214;-78
2022/02/09 08:29:16;;;;;;;17.67;8.87;;;;;;;4.64;79.72;100906.59;125558;1099;104166;-76
2022/02/09 08:34:42;;;;;;;21.77;9.67;;;;;;;4.75;79.11;100898.58;125140;1102;104239;-77
2022/02/09 08:37:16;;;;;;;19.17;8.80;;;;;;;4.80;79.61;100912.77;124955;1102;104293;-78
2022/02/09 08:39:50;;;;;;;18.47;9.10;;;;;;;4.84;79.01;100912.18;124949;1099;104275;-80
2022/02/09 08:42:23;;;;;;;17.98;8.25;;;;;;;4.88;79.54;100921.99;124982;1102;104203;-77
2022/02/09 08:44:54;;;;;;;17.47;7.60;;;;;;;4.89;79.26;100913.37;124964;1099;104223;-78
2022/02/09 08:47:26;;;;;;;18.17;7.80;;;;;;;4.91;79.21;100924.80;124928;1099;104306;-76
2022/02/09 08:50:02;;;;;;;19.70;8.27;;;;;;;4.98;79.22;100928.69;124985;1099;104162;-78
2022/02/09 08:52:37;;;;;;;15.53;7.40;;;;;;;5.04;78.92;100929.97;125113;1099;104252;-79
2022/02/09 08:55:15;;;;;;;20.07;7.93;;;;;;;5.14;78.65;100930.56;125017;1099;104210;-78
2022/02/09 08:57:47;;;;;;;18.57;7.60;;;;;;;5.21;78.77;100931.06;125080;1099;104258;-78
2022/02/09 09:00:25;;;;;;;16.65;8.03;;;;;;;5.29;78.93;100936.75;124966;1099;104169;-78
2022/02/09 09:03:24;;;;;;;16.10;7.60;;;;;;;5.36;78.92;100935.44;125217;1099;104597;-77
2022/02/09 09:06:02;;;;;;;15.87;7.83;;;;;;;5.46;78.01;100940.44;125186;1100;104159;-78
2022/02/09 09:08:47;;;;;;;15.57;6.57;;;;;;;5.54;78.50;100939.20;125126;1099;104156;-78
2022/02/09 09:12:00;;;;;;;18.23;7.33;;;;;;;5.65;78.64;100936.38;125063;1099;104245;-79
2022/02/09 09:17:33;;;;;;;14.93;7.20;;;;;;;5.82;77.94;100947.85;125071;1102;104155;-79
2022/02/09 10:04:14;;;;;;;14.10;5.97;;;;;;;6.28;75.22;100953.30;125076;1102;111016;-77
2022/02/09 10:33:10;;;;;;;18.52;6.55;;;;;;;6.21;74.32;100975.47;124945;1099;104344;-77
2022/02/09 10:35:48;;;;;;;13.43;6.07;;;;;;;6.24;74.61;100974.77;124923;1102;104204;-77
2022/02/09 10:38:40;;;;;;;12.40;5.80;;;;;;;6.27;74.61;100978.45;124970;1100;104219;-80
2022/02/09 10:41:25;;;;;;;19.17;6.27;;;;;;;6.26;74.38;100979.28;125035;1099;104184;-76
2022/02/09 10:44:13;;;;;;;15.33;6.10;;;;;;;6.22;74.31;100989.42;125069;1102;104168;-78
2022/02/09 10:46:55;;;;;;;11.97;5.30;;;;;;;6.15;74.56;100982.02;124957;1099;104203;-77
2022/02/09 10:49:30;;;;;;;15.60;6.47;;;;;;;6.08;74.39;100979.04;124983;1099;104159;-78
2022/02/09 10:52:16;;;;;;;15.43;6.20;;;;;;;6.08;74.17;100978.16;124985;1102;103519;-77
2022/02/09 10:54:52;;;;;;;18.67;6.20;;;;;;;6.14;74.16;100990.63;124942;1099;109458;-78
2022/02/09 10:57:25;;;;;;;14.17;5.77;;;;;;;6.24;74.46;100982.58;124990;1102;104220;-78
2022/02/09 11:00:01;;;;;;;14.38;6.25;;;;;;;6.33;74.12;100988.36;125081;1099;104267;-78
2022/02/09 11:02:34;;;;;;;12.60;5.37;;;;;;;6.40;74.00;100973.97;125015;1099;104181;-79
2022/02/09 11:05:09;;;;;;;11.03;4.77;;;;;;;6.43;73.52;100995.91;125340;1099;118912;-79
2022/02/09 11:07:46;;;;;;;12.90;5.40;;;;;;;6.46;73.79;100983.05;124956;1102;104271;-78
2022/02/09 11:10:22;;;;;;;14.90;5.57;;;;;;;6.52;74.00;100985.14;125010;1099;104177;-79
2022/02/09 11:12:56;;;;;;;11.70;5.33;;;;;;;6.57;74.13;100988.02;124946;1099;104268;-80
2022/02/09 11:15:34;;;;;;;14.27;6.00;;;;;;;6.58;74.02;100977.69;125596;1099;104731;-78
2022/02/09 11:18:09;;;;;;;15.13;5.90;;;;;;;6.57;73.63;101001.06;125062;1099;104357;-78
2022/02/09 11:21:10;;;;;;;16.40;6.47;;;;;;;6.52;73.73;100995.56;125587;1099;104213;-78
2022/02/09 11:23:51;;;;;;;12.13;4.97;;;;;;;6.51;73.13;100995.47;125461;1099;104293;-77
2022/02/09 11:26:38;;;;;;;15.23;5.10;;;;;;;6.51;72.72;100996.37;126289;1098;101884;-79
2022/02/09 11:29:43;;;;;;;10.77;4.80;;;;;;;6.57;72.93;101007.16;125552;1099;102807;-78
2022/02/09 11:32:31;;;;;;;16.03;5.17;;;;;;;6.66;72.82;100984.24;125065;1099;105418;-78
2022/02/09 11:35:21;;;;;;;16.23;5.10;;;;;;;6.73;71.64;100989.82;125627;1099;105202;-78
2022/02/09 11:38:14;;;;;;;9.50;4.10;;;;;;;6.71;70.98;100983.63;125599;1099;104175;-77
2022/02/09 11:41:02;;;;;;;10.97;4.47;;;;;;;6.66;70.91;100983.35;127244;1098;101741;-78
2022/02/09 11:58:52;;;;;;;14.43;4.90;;;;;;;6.79;69.76;101004.14;125408;1099;104261;-78
2022/02/09 12:10:44;;;;;;;15.30;4.53;;;;;;;6.85;69.41;101003.59;126020;1099;104159;-79
2022/02/09 12:13:42;;;;;;;;;;;;;;;6.81;67.80;101010.34;125908;1099;104147;-79
2022/02/09 12:16:46;;;;;;;12.83;5.13;;;;;;;6.83;68.54;101013.93;125877;1099;104447;-81
2022/02/09 12:19:35;;;;;;;10.50;4.80;;;;;;;6.81;69.15;101010.34;125490;1099;104377;-78
2022/02/09 12:22:17;;;;;;;14.77;4.37;;;;;;;6.77;69.04;101008.35;125759;1099;104172;-81
2022/02/09 12:25:05;;;;;;;12.80;4.23;;;;;;;6.76;68.98;101013.48;125679;1099;104723;-78
2022/02/09 12:27:43;;;;;;;12.67;4.73;;;;;;;6.71;68.25;101018.42;125763;1099;104229;-79
2022/02/09 12:30:20;;;;;;;14.30;4.97;;;;;;;6.68;68.36;101023.45;125992;1099;104296;-79
2022/02/09 12:32:55;;;;;;;14.53;5.30;;;;;;;6.68;69.11;101026.06;125767;1099;104242;-81
2022/02/09 12:35:28;;;;;;;16.10;4.70;;;;;;;6.72;67.36;101014.13;125801;1099;104217;-81
2022/02/09 12:38:15;;;;;;;;;;;;;;;;;;;;;
2022/02/09 12:41:11;;;;;;;9.90;3.63;;;;;;;6.83;67.61;101026.97;125750;1099;104248;-82
2022/02/09 12:43:59;;;;;;;11.50;3.83;;;;;;;6.86;66.53;101027.95;125108;1099;104185;-79
2022/02/09 12:46:48;;;;;;;7.40;3.37;;;;;;;6.91;66.63;101032.64;125685;1099;104280;-80
2022/02/09 12:49:23;;;;;;;11.70;3.27;;;;;;;6.96;64.77;101035.52;125770;1099;104341;-79
2022/02/09 12:52:02;;;;;;;8.90;2.87;;;;;;;7.02;65.59;101030.66;125863;1099;104232;-79
2022/02/09 12:54:35;;;;;;;8.00;3.13;;;;;;;7.06;64.16;101031.73;126028;1099;104252;-78
2022/02/09 12:57:10;;;;;;;13.67;3.07;;;;;;;7.10;63.79;101031.11;126038;1099;104196;-79
2022/02/09 12:59:49;;;;;;;9.73;3.00;;;;;;;7.09;64.00;101043.28;126030;1099;104325;-78
2022/02/09 13:02:25;;;;;;;11.60;3.35;;;;;;;7.10;62.74;101062.43;125257;1099;104184;-79
2022/02/09 13:05:06;;;;;;;9.17;2.93;;;;;;;7.11;62.71;101057.30;125911;1099;104211;-78
2022/02/09 13:07:42;;;;;;;11.20;4.00;;;;;;;7.11;62.08;101064.24;125881;1099;104255;-79
2022/02/09 13:10:25;;;;;;;11.37;3.70;;;;;;;7.06;62.50;101061.36;125343;1099;104370;-79
2022/02/09 13:13:05;;;;;;;12.83;3.53;;;;;;;7.05;62.79;101067.37;125252;1099;104302;-79
2022/02/09 13:15:47;;;;;;;11.57;3.83;;;;;;;7.01;63.54;101065.39;125860;1099;104262;-79
2022/02/09 13:18:37;;;;;;;13.70;3.60;;;;;;;7.00;63.42;101063.61;125871;1099;105302;-79
2022/02/09 14:12:51;;;;;;;7.87;2.93;;;;;;;6.76;60.79;101109.98;125706;1098;104272;-80
2022/02/09 14:18:49;;;;;;;17.95;4.60;;;;;;;6.71;60.36;101122.75;125507;1097;104227;-79
2022/02/09 14:53:26;;;;;;;15.33;4.30;;;;;;;6.42;59.42;101162.66;126058;1098;104168;-79
2022/02/09 14:56:07;;;;;;;19.13;4.50;;;;;;;6.38;60.43;101155.47;125810;1099;104208;-80
2022/02/09 14:58:44;;;;;;;12.63;4.60;;;;;;;6.35;59.87;101161.38;125114;1099;104194;-79
2022/02/09 15:01:29;;;;;;;12.73;4.10;;;;;;;6.33;60.10;101164.67;125167;1099;111087;-79
2022/02/09 15:07:05;;;;;;;13.63;4.33;;;;;;;6.29;60.45;101182.77;125686;1099;104239;-78
2022/02/09 15:09:48;;;;;;;17.63;4.67;;;;;;;6.26;60.29;101186.86;125699;1099;104245;-78
2022/02/09 15:12:29;;;;;;;18.85;5.30;;;;;;;6.22;60.88;101183.16;125612;1099;104171;-78
2022/02/09 15:15:19;;;;;;;16.80;4.70;;;;;;;6.20;60.33;101194.28;125573;1098;102936;-80
2022/02/09 15:21:13;;;;;;;13.40;4.70;;;;;;;6.13;60.36;101199.92;125696;1099;104274;-78
2022/02/09 15:23:48;;;;;;;12.57;4.53;;;;;;;6.08;60.68;101205.72;126713;1099;101965;-79
2022/02/09 15:26:24;;;;;;;10.45;3.95;;;;;;;6.02;58.93;101202.72;125815;1098;104172;-79
2022/02/09 15:29:01;;;;;;;10.60;4.07;;;;;;;6.00;59.65;101212.14;125827;1099;104207;-78
2022/02/09 15:31:41;;;;;;;9.00;3.73;;;;;;;5.98;59.18;101211.12;125672;1099;104293;-80
2022/02/09 15:34:22;;;;;;;14.17;4.00;;;;;;;5.94;59.08;101212.60;125669;1099;104241;-80
2022/02/09 15:37:04;;;;;;;9.57;3.47;;;;;;;5.91;59.19;101215.00;125577;1099;104179;-79
2022/02/09 15:39:41;;;;;;;11.20;3.77;;;;;;;5.90;58.91;101217.51;127142;1099;101722;-78
2022/02/09 15:42:43;;;;;;;11.07;3.83;;;;;;;5.89;58.94;101226.11;125625;1099;110473;-80
2022/02/09 15:56:49;;;;;;;14.87;4.17;;;;;;;5.78;60.02;101229.72;125590;1099;104159;-78
2022/02/09 16:10:48;;;;;;;14.53;4.50;;;;;;;5.40;59.85;101235.04;125799;1099;104178;-78
2022/02/09 16:21:57;;;;;;;19.80;6.00;;;;;;;5.11;59.82;101242.55;125701;1099;104272;-78
2022/02/09 16:24:55;;;;;;;15.80;6.00;;;;;;;5.04;60.59;101255.13;125709;1099;104248;-78
2022/02/09 16:33:18;;;;;;;17.17;5.80;;;;;;;4.91;60.47;101254.16;125648;1099;108670;-77
2022/02/09 16:44:16;;;;;;;15.30;5.77;;;;;;;4.83;60.42;101256.21;125678;1099;104175;-78
2022/02/09 16:44:42;;;;;;;16.73;5.63;;;;;;;4.77;60.98;101255.77;125764;1099;104252;-77
2022/02/09 16:47:29;;;;;;;21.10;5.90;;;;;;;4.73;61.17;101256.38;125759;1099;104217;-77
2022/02/09 16:50:05;;;;;;;13.87;5.53;;;;;;;4.69;61.36;101263.06;125813;1099;104166;-77
2022/02/09 16:52:42;;;;;;;18.63;5.70;;;;;;;4.66;60.88;101260.24;125789;1099;104609;-78
2022/02/09 16:55:38;;;;;;;20.30;6.63;;;;;;;4.63;61.34;101266.11;125900;1099;104156;-78
2022/02/09 17:20:40;;;;;;;20.57;7.17;;;;;;;4.37;62.13;101260.73;125838;1099;104254;-77
2022/02/09 17:23:12;;;;;;;15.93;6.90;;;;;;;4.34;61.45;101264.00;125748;1099;104163;-77
2022/02/09 17:25:45;;;;;;;20.83;7.73;;;;;;;4.31;61.54;101263.78;125798;1099;104194;-77
2022/02/09 17:28:17;;;;;;;20.27;7.47;;;;;;;4.28;61.96;101260.95;125798;1099;104175;-77
2022/02/09 17:31:05;;;;;;;19.30;6.90;;;;;;;4.25;62.17;101258.13;126027;1099;104178;-78
2022/02/09 17:33:48;;;;;;;19.27;6.70;;;;;;;4.23;62.02;101262.33;125878;1099;104162;-77
2022/02/09 17:36:25;;;;;;;18.40;7.23;;;;;;;4.21;62.26;101275.20;125838;1099;104238;-77
2022/02/09 17:39:03;;;;;;;21.27;7.00;;;;;;;4.20;61.76;101275.98;125743;1099;104744;-77
2022/02/09 17:55:54;;;;;;;23.23;7.73;;;;;;;4.11;61.87;101285.69;125874;1099;104322;-77
2022/02/09 17:58:29;;;;;;;21.77;7.40;;;;;;;4.10;62.65;101286.50;125964;1099;104173;-77
2022/02/09 18:01:02;;;;;;;19.40;7.47;;;;;;;4.10;63.14;101292.59;126036;1099;104168;-77
2022/02/09 18:03:34;;;;;;;20.47;7.70;;;;;;;4.08;62.34;101293.25;126073;1099;104182;-77
2022/02/09 18:06:18;;;;;;;22.93;8.27;;;;;;;4.05;62.85;101291.35;126079;1099;104444;-77
2022/02/09 18:08:57;;;;;;;20.75;8.35;;;;;;;4.02;62.73;101288.52;126019;1099;104302;-77
2022/02/09 18:11:42;;;;;;;24.33;8.93;;;;;;;3.98;62.71;101282.98;126060;1099;104179;-77
2022/02/09 18:14:30;;;;;;;28.03;13.03;;;;;;;3.92;62.73;101288.61;126163;1099;105184;-79
2022/02/09 18:31:12;;;;;;;28.03;11.20;;;;;;;3.54;62.82;101295.31;126239;1098;104149;-80
2022/02/09 18:34:05;;;;;;;;;;;;;;;3.51;63.05;101301.97;126309;1099;105515;-80
2022/02/09 18:45:08;;;;;;;30.57;11.77;;;;;;;3.36;63.64;101315.55;126109;1099;104169;-79
2022/02/09 19:02:06;;;;;;;29.20;13.80;;;;;;;3.16;64.11;101319.17;126268;1099;104278;-79
2022/02/09 19:04:43;;;;;;;29.00;13.23;;;;;;;3.13;64.10;101318.97;126245;1099;104252;-79
2022/02/09 19:07:36;;;;;;;29.83;13.77;;;;;;;3.10;63.91;101316.13;126360;1098;104149;-79
2022/02/09 19:16:04;;;;;;;30.53;14.97;;;;;;;3.02;63.70;101319.78;126226;1099;104166;-79
2022/02/09 19:18:46;;;;;;;33.03;15.63;;;;;;;3.00;64.26;101321.36;126284;1099;104393;-79
2022/02/09 19:27:13;;;;;;;34.30;17.27;;;;;;;2.95;63.98;101325.29;126209;1099;104258;-79
2022/02/09 19:29:58;;;;;;;38.87;18.87;;;;;;;2.93;63.88;101326.83;126332;1099;104331;-79
2022/02/09 19:32:56;;;;;;;38.50;18.03;;;;;;;2.92;64.21;101322.45;126266;1099;104284;-79
2022/02/09 19:47:00;;;;;;;38.77;19.47;;;;;;;2.78;64.65;101332.61;126208;1099;104417;-79
2022/02/09 19:49:48;;;;;;;41.70;20.97;;;;;;;2.75;64.53;101331.47;126306;1099;104143;-79
2022/02/09 19:52:32;;;;;;;40.00;20.43;;;;;;;2.70;64.50;101333.69;126305;1099;104143;-79
2022/02/09 19:55:20;;;;;;;42.67;20.60;;;;;;;2.66;64.69;101334.22;126330;1099;104268;-79
2022/02/09 19:57:55;;;;;;;40.23;20.43;;;;;;;2.62;64.44;101329.59;126259;1099;118624;-80
2022/02/09 20:00:29;;;;;;;43.60;20.93;;;;;;;2.59;64.87;101335.41;126313;1099;101901;-79
2022/02/09 20:03:01;;;;;;;49.30;22.23;;;;;;;2.58;65.00;101335.29;126294;1099;104178;-79
2022/02/09 20:05:33;;;;;;;43.70;21.33;;;;;;;2.55;64.56;101345.41;126294;1099;104152;-80
2022/02/09 20:08:06;;;;;;;45.20;22.53;;;;;;;2.52;64.33;101338.28;126306;1099;104287;-79
2022/02/09 20:10:38;;;;;;;48.25;24.10;;;;;;;2.49;64.71;101338.95;126353;1099;104175;-78
2022/02/09 20:13:09;;;;;;;44.73;23.00;;;;;;;2.47;64.47;101345.67;126290;1099;104219;-80
2022/02/09 20:15:40;;;;;;;50.97;25.53;;;;;;;2.46;65.18;101343.89;126258;1099;104179;-79
2022/02/09 20:18:12;;;;;;;52.77;25.87;;;;;;;2.43;65.05;101342.70;126200;1098;104267;-79
2022/02/09 20:20:43;;;;;;;47.50;25.63;;;;;;;2.39;64.97;101332.89;126305;1099;104192;-79
2022/02/09 20:23:14;;;;;;;48.83;25.87;;;;;;;2.37;65.01;101344.80;126354;1099;104296;-78
2022/02/09 20:25:46;;;;;;;45.10;22.90;;;;;;;2.33;65.18;101347.13;126297;1099;104171;-79
2022/02/09 20:28:18;;;;;;;47.40;24.67;;;;;;;2.32;65.51;101341.83;126305;1099;104274;-79
2022/02/09 20:30:56;;;;;;;46.57;23.70;;;;;;;2.32;65.33;101349.59;126246;1099;104152;-79
2022/02/09 20:33:33;;;;;;;45.93;23.67;;;;;;;2.31;65.29;101352.98;126343;1099;104255;-79
2022/02/09 20:36:08;;;;;;;45.90;23.60;;;;;;;2.28;65.33;101347.55;126325;1099;104265;-79
2022/02/09 20:38:38;;;;;;;;;;;;;;;2.26;66.18;101350.02;126296;1099;105354;-79
2022/02/09 20:41:11;;;;;;;45.00;22.40;;;;;;;2.25;65.16;101358.55;126265;1099;104143;-79
2022/02/09 20:43:47;;;;;;;35.37;17.23;;;;;;;2.24;65.55;101353.25;126398;1099;104156;-79
2022/02/09 20:46:18;;;;;;;35.03;16.30;;;;;;;2.22;65.11;101362.59;126378;1099;104222;-78
2022/02/09 20:48:50;;;;;;;39.53;17.67;;;;;;;2.21;66.05;101365.94;126273;1099;104149;-79
2022/02/09 20:51:22;;;;;;;31.63;16.00;;;;;;;2.15;65.89;101372.44;126270;1098;104178;-79
2022/02/09 20:53:53;;;;;;;33.07;16.10;;;;;;;2.12;65.77;101374.77;126292;1099;104214;-79
2022/02/09 20:56:24;;;;;;;35.03;16.97;;;;;;;2.07;65.63;101362.20;126301;1099;104147;-78
2022/02/09 20:59:00;;;;;;;35.20;15.83;;;;;;;2.04;65.24;101364.53;126303;1099;104252;-79
2022/02/09 21:01:38;;;;;;;34.73;17.23;;;;;;;2.00;66.09;101367.67;126343;1099;104322;-79